Time;durP1;ratioP1;P1;durP2;ratioP2;P2;SDS_P1;SDS_P2;PMS_P1;PMS_P2;Temp;Humidity;BMP_temperature;BMP_pressure;BME280_temperature;BME280_humidity;BME280_pressure;Samples;Min_cycle;Max_cycle;Signal;HPM_P1;HPM_P2
2022/09/08 00:01:38;;;;;;;4.23;2.27;;;10.00;99.90;9.30;100728;;;;578519;246;24190;-86
2022/09/08 00:04:09;;;;;;;2.73;2.20;;;10.00;99.90;9.30;100728;;;;573943;246;24203;-86
2022/09/08 00:06:34;;;;;;;3.27;2.00;;;10.00;99.90;9.20;100712;;;;573350;246;24154;-86
2022/09/08 00:09:02;;;;;;;2.30;2.10;;;9.90;99.90;9.20;100712;;;;573817;246;24126;-86
2022/09/08 00:11:30;;;;;;;2.50;2.30;;;9.90;99.90;9.20;100702;;;;579376;246;24113;-86
2022/09/08 00:14:01;;;;;;;7.93;2.20;;;9.90;99.90;9.20;100699;;;;582152;242;24139;-86
2022/09/08 00:16:26;;;;;;;3.43;1.77;;;9.90;99.90;9.20;100691;;;;573108;246;24139;-85
2022/09/08 00:18:54;;;;;;;2.50;2.30;;;9.90;99.90;9.10;100699;;;;573732;246;24123;-87
2022/09/08 00:21:25;;;;;;;2.63;1.83;;;9.80;99.90;9.10;100687;;;;578227;246;24126;-85
2022/09/08 00:23:52;;;;;;;3.03;1.87;;;9.80;99.90;9.10;100699;;;;571291;246;25167;-85
2022/09/08 00:26:20;;;;;;;2.07;1.97;;;9.80;99.90;9.00;100704;;;;581846;246;24146;-86
2022/09/08 00:28:48;;;;;;;3.90;2.23;;;9.80;99.90;9.00;100718;;;;573003;246;24100;-86
2022/09/08 00:31:16;;;;;;;2.63;2.20;;;9.70;99.90;8.90;100715;;;;573553;245;24106;-86
2022/09/08 00:33:45;;;;;;;2.23;2.13;;;9.60;99.90;8.80;100707;;;;574795;246;24090;-86
2022/09/08 00:36:14;;;;;;;2.60;2.43;;;9.60;99.90;8.80;100705;;;;583302;246;24116;-86
2022/09/08 00:38:40;;;;;;;5.77;2.03;;;9.50;99.90;8.70;100701;;;;574186;246;24103;-86
2022/09/08 00:41:11;;;;;;;2.77;2.00;;;9.40;99.90;8.60;100703;;;;579212;246;24116;-86
2022/09/08 00:43:41;;;;;;;2.33;2.03;;;9.40;99.90;8.70;100710;;;;578881;246;24151;-86
2022/09/08 00:46:09;;;;;;;3.00;2.30;;;9.30;99.90;8.60;100701;;;;582730;246;24102;-86
2022/09/08 00:48:38;;;;;;;2.40;2.00;;;9.30;99.90;8.60;100706;;;;579695;246;24132;-86
2022/09/08 00:51:09;;;;;;;1.97;1.83;;;9.30;99.90;8.60;100709;;;;582129;244;24138;-86
2022/09/08 00:53:37;;;;;;;4.57;1.90;;;9.30;99.90;8.60;100717;;;;578818;246;24112;-86
2022/09/08 00:56:05;;;;;;;3.15;2.42;;;9.20;99.90;8.60;100712;;;;568368;246;35316;-86
2022/09/08 00:58:30;;;;;;;2.13;2.03;;;9.30;99.90;8.60;100723;;;;578350;246;24102;-88
2022/09/08 01:00:57;;;;;;;1.93;1.80;;;9.30;99.90;8.50;100723;;;;578283;246;25142;-88
2022/09/08 01:03:26;;;;;;;2.70;2.50;;;9.20;99.90;8.50;100714;;;;578428;246;24094;-86
2022/09/08 01:05:57;;;;;;;3.03;2.00;;;9.20;99.90;8.50;100710;;;;579414;246;24139;-85
2022/09/08 01:14:48;;;;;;;4.60;2.20;;;9.20;99.90;8.40;100706;;;;573764;246;24267;-86
2022/09/08 01:17:25;;;;;;;2.03;1.80;;;9.10;99.90;8.40;100703;;;;578206;246;24101;-88
2022/09/08 01:19:57;;;;;;;1.90;1.67;;;9.20;99.90;8.40;100704;;;;579282;246;24164;-85
2022/09/08 01:23:01;;;;;;;1.93;1.83;;;9.10;99.90;8.40;100708;;;;573405;246;24201;-85
2022/09/08 01:25:53;;;;;;;2.10;1.90;;;9.10;99.90;8.30;100712;;;;574140;246;24120;-86
2022/09/08 01:28:29;;;;;;;6.13;2.13;;;9.10;99.90;8.30;100708;;;;578920;246;24165;-87
2022/09/08 01:30:57;;;;;;;2.70;2.20;;;9.00;99.90;8.30;100707;;;;583225;242;24187;-88
2022/09/08 01:33:28;;;;;;;2.30;2.10;;;9.00;99.90;8.20;100708;;;;579080;246;24097;-86
2022/09/08 01:35:53;;;;;;;2.50;2.10;;;9.00;99.90;8.20;100708;;;;581896;246;24149;-86
2022/09/08 01:38:21;;;;;;;2.00;1.90;;;8.90;99.90;8.20;100701;;;;577993;246;24098;-85
2022/09/08 01:40:49;;;;;;;2.60;2.40;;;8.90;99.90;8.20;100694;;;;577763;246;24096;-86
2022/09/08 01:43:17;;;;;;;4.10;2.23;;;8.90;99.90;8.20;100700;;;;573922;246;24142;-86
2022/09/08 01:45:44;;;;;;;1.63;1.53;;;9.00;99.90;8.20;100697;;;;579086;246;24109;-87
2022/09/08 01:48:12;;;;;;;2.40;2.20;;;9.00;99.90;8.20;100693;;;;578984;246;24112;-87
2022/09/08 01:50:40;;;;;;;2.10;2.00;;;9.00;99.90;8.30;100691;;;;580345;246;24122;-87
2022/09/08 01:53:08;;;;;;;2.73;1.87;;;9.00;99.90;8.30;100685;;;;579054;246;24116;-86
2022/09/08 01:55:36;;;;;;;2.00;1.80;;;9.00;99.90;8.30;100683;;;;578801;246;24084;-85
2022/09/08 01:58:05;;;;;;;2.63;1.50;;;9.10;99.90;8.30;100692;;;;578962;246;24172;-86
2022/09/08 02:00:33;;;;;;;2.07;1.50;;;9.00;99.90;8.30;100689;;;;578893;246;24142;-86
2022/09/08 02:03:01;;;;;;;5.73;1.70;;;9.10;99.90;8.30;100686;;;;582690;246;24102;-86
2022/09/08 02:05:29;;;;;;;2.73;1.90;;;9.10;99.90;8.40;100682;;;;578562;246;24088;-86
2022/09/08 02:07:57;;;;;;;1.67;1.57;;;9.10;99.90;8.40;100678;;;;578661;246;24084;-86
2022/09/08 02:10:25;;;;;;;2.10;1.80;;;9.10;99.90;8.40;100690;;;;578460;246;24091;-85
2022/09/08 02:12:53;;;;;;;1.57;1.57;;;9.10;99.90;8.50;100680;;;;578660;246;24114;-85
2022/09/08 02:15:21;;;;;;;3.77;1.60;;;9.20;99.90;8.50;100683;;;;578512;246;24080;-85
2022/09/08 02:17:49;;;;;;;1.77;1.63;;;9.20;99.90;8.50;100679;;;;578651;246;24116;-86
2022/09/08 02:20:19;;;;;;;1.60;1.50;;;9.30;99.90;8.60;100678;;;;573305;246;24207;-85
2022/09/08 02:22:45;;;;;;;1.97;1.83;;;9.30;99.90;8.60;100675;;;;578769;246;24099;-85
2022/09/08 02:25:13;;;;;;;2.50;1.47;;;9.40;99.90;8.60;100674;;;;573671;246;24099;-85
2022/09/08 02:27:44;;;;;;;1.50;1.40;;;9.40;99.90;8.70;100684;;;;571746;246;24122;-84
2022/09/08 02:30:08;;;;;;;1.47;1.37;;;9.50;99.90;8.80;100683;;;;573162;246;24127;-85
2022/09/08 02:32:39;;;;;;;1.40;1.30;;;9.50;99.90;8.90;100684;;;;568345;246;35339;-86
2022/09/08 02:35:04;;;;;;;1.47;1.37;;;9.60;99.90;9.00;100683;;;;573181;246;24107;-86
2022/09/08 02:37:32;;;;;;;1.30;1.30;;;9.70;99.90;9.10;100681;;;;573211;246;24099;-86
2022/09/08 02:40:02;;;;;;;1.10;1.00;;;9.80;99.90;9.20;100686;;;;577872;246;24158;-84
2022/09/08 02:42:29;;;;;;;3.30;1.23;;;9.90;99.90;9.20;100686;;;;578029;246;24122;-85
2022/09/08 02:44:57;;;;;;;1.13;0.97;;;9.90;99.90;9.30;100685;;;;578002;246;24093;-86
2022/09/08 02:47:25;;;;;;;2.40;1.20;;;10.00;99.90;9.30;100690;;;;578162;246;24119;-85
2022/09/08 02:49:52;;;;;;;2.67;1.10;;;10.00;99.90;9.30;100684;;;;578005;246;24158;-85
2022/09/08 02:52:20;;;;;;;4.33;1.20;;;10.00;99.90;9.30;100682;;;;579903;246;24135;-85
2022/09/08 02:54:50;;;;;;;1.13;1.03;;;10.00;99.90;9.40;100680;;;;579430;241;24094;-85
2022/09/08 02:57:20;;;;;;;1.20;1.10;;;10.10;99.90;9.40;100672;;;;580027;246;24170;-86
2022/09/08 02:59:46;;;;;;;1.20;1.10;;;10.10;99.90;9.40;100670;;;;579743;246;24097;-86
2022/09/08 03:02:14;;;;;;;1.00;0.90;;;10.10;99.90;9.30;100667;;;;579619;246;24186;-86
2022/09/08 03:04:42;;;;;;;2.20;1.10;;;10.00;99.90;9.30;100670;;;;579176;246;24123;-87
2022/09/08 03:07:10;;;;;;;4.83;1.20;;;10.00;99.90;9.30;100667;;;;579309;246;24105;-87
2022/09/08 03:09:37;;;;;;;1.17;1.17;;;10.00;99.90;9.20;100672;;;;574490;246;24118;-87
2022/09/08 03:12:10;;;;;;;0.90;0.90;;;9.90;99.90;9.20;100672;;;;579335;246;24077;-86
2022/09/08 03:14:34;;;;;;;3.40;0.70;;;9.90;99.90;9.20;100671;;;;573902;246;24112;-87
2022/09/08 03:17:05;;;;;;;1.17;1.10;;;9.90;99.90;9.20;100669;;;;578762;246;24156;-86
2022/09/08 03:19:30;;;;;;;1.20;0.90;;;9.90;99.90;9.20;100669;;;;573311;246;24182;-87
2022/09/08 03:21:59;;;;;;;1.97;1.07;;;9.90;99.90;9.20;100665;;;;578031;246;25166;-85
2022/09/08 03:24:26;;;;;;;1.20;1.20;;;9.90;99.90;9.20;100666;;;;578258;246;24170;-86
2022/09/08 03:26:54;;;;;;;1.60;1.20;;;9.90;99.90;9.10;100668;;;;578195;246;24091;-86
2022/09/08 03:29:22;;;;;;;1.40;1.37;;;9.90;99.90;9.10;100670;;;;578336;246;24204;-86
2022/09/08 03:31:50;;;;;;;1.00;1.00;;;9.80;99.90;9.20;100663;;;;577832;245;24150;-86
2022/09/08 03:34:18;;;;;;;1.00;1.00;;;9.90;99.90;9.20;100667;;;;577894;246;24072;-86
2022/09/08 03:36:46;;;;;;;1.20;1.10;;;9.90;99.90;9.10;100668;;;;577520;246;24127;-86
2022/09/08 03:39:17;;;;;;;1.23;1.23;;;9.80;99.90;9.20;100658;;;;577418;246;24081;-86
2022/09/08 03:41:42;;;;;;;1.20;1.10;;;9.80;99.90;9.20;100661;;;;581386;242;24147;-87
2022/09/08 03:44:10;;;;;;;1.00;1.00;;;9.80;99.90;9.20;100666;;;;577581;246;24108;-90
2022/09/08 03:46:37;;;;;;;0.90;0.90;;;9.90;99.90;9.20;100669;;;;573085;246;24080;-90
2022/09/08 03:49:05;;;;;;;1.33;1.23;;;9.90;99.90;9.20;100667;;;;578829;246;24270;-90
2022/09/08 03:51:33;;;;;;;0.97;0.97;;;9.90;99.90;9.20;100662;;;;577560;246;24103;-88
2022/09/08 03:56:47;;;;;;;1.10;1.10;;;9.80;99.90;9.10;100662;;;;573282;246;24147;-90
2022/09/08 03:59:19;;;;;;;0.90;0.90;;;9.70;99.90;9.10;100664;;;;582101;245;24127;-89
2022/09/08 04:01:43;;;;;;;1.00;1.00;;;9.80;99.90;9.10;100664;;;;572945;246;24103;-91
2022/09/08 04:04:11;;;;;;;1.70;1.13;;;9.70;99.90;9.10;100657;;;;578015;246;24175;-91
2022/09/08 04:06:39;;;;;;;1.90;1.20;;;9.70;99.90;9.00;100650;;;;578819;246;24102;-89
2022/09/08 04:09:07;;;;;;;1.40;1.30;;;9.70;99.90;9.00;100655;;;;579350;246;24090;-90
2022/09/08 04:11:35;;;;;;;4.00;1.20;;;9.70;99.90;8.90;100652;;;;578951;246;24178;-90
2022/09/08 04:14:03;;;;;;;1.57;1.27;;;9.60;99.90;8.90;100657;;;;578969;246;24083;-89
2022/09/08 04:16:31;;;;;;;2.97;1.53;;;9.60;99.90;8.90;100645;;;;578985;246;24143;-89
2022/09/08 04:18:59;;;;;;;1.37;1.27;;;9.60;99.90;8.80;100648;;;;578539;246;24153;-88
2022/09/08 04:21:27;;;;;;;4.80;1.43;;;9.50;99.90;8.80;100651;;;;578601;246;24141;-86
2022/09/08 04:23:55;;;;;;;1.53;1.17;;;9.50;99.90;8.80;100653;;;;578202;246;24088;-87
2022/09/08 04:26:23;;;;;;;1.37;1.27;;;9.50;99.90;8.80;100645;;;;578352;246;24152;-86
2022/09/08 04:28:51;;;;;;;1.30;1.20;;;9.50;99.90;8.80;100643;;;;578109;246;24149;-85
2022/09/08 04:31:19;;;;;;;0.97;0.97;;;9.50;99.90;8.90;100651;;;;578051;245;24112;-87
2022/09/08 04:33:46;;;;;;;1.43;1.30;;;9.50;99.90;8.90;100648;;;;573403;246;24131;-86
2022/09/08 04:36:15;;;;;;;3.77;1.77;;;9.60;99.90;8.90;100651;;;;573619;246;24106;-86
2022/09/08 04:38:42;;;;;;;2.00;1.70;;;9.60;99.90;8.90;100651;;;;582370;245;24088;-86
2022/09/08 04:41:10;;;;;;;15.33;2.20;;;9.60;99.90;8.90;100648;;;;579850;246;24142;-86
2022/09/08 04:43:38;;;;;;;5.97;2.17;;;9.60;99.90;8.90;100644;;;;582119;242;24099;-85
2022/09/08 04:46:09;;;;;;;1.83;1.47;;;9.60;99.90;9.00;100647;;;;573288;246;24091;-86
2022/09/08 04:48:37;;;;;;;2.33;2.07;;;9.70;99.90;9.10;100638;;;;578390;246;24115;-86
2022/09/08 04:51:06;;;;;;;19.07;2.33;;;9.70;99.90;9.20;100644;;;;582021;246;24106;-86
2022/09/08 04:53:33;;;;;;;3.40;1.57;;;9.80;99.90;9.20;100648;;;;573322;246;24091;-87
2022/09/08 04:56:01;;;;;;;9.43;2.03;;;9.90;99.90;9.30;100646;;;;572951;246;24104;-86
2022/09/08 04:58:29;;;;;;;3.77;1.70;;;10.00;99.90;9.40;100637;;;;581669;244;24151;-86
2022/09/08 05:01:05;;;;;;;38.87;5.60;;;10.10;99.90;9.50;100641;;;;576557;246;46272;-86
2022/09/08 05:03:33;;;;;;;13.07;3.03;;;10.20;99.90;9.70;100644;;;;572870;246;24083;-86
2022/09/08 05:06:10;;;;;;;13.50;2.07;;;10.40;99.90;9.90;100641;;;;578667;246;24100;-85
2022/09/08 05:08:38;;;;;;;10.03;2.10;;;10.90;99.90;10.30;100640;;;;572973;246;24099;-85
2022/09/08 05:11:11;;;;;;;1.73;1.60;;;12.20;99.90;12.10;100647;;;;575247;246;24107;-86
2022/09/08 05:13:39;;;;;;;5.00;1.60;;;12.20;99.90;14.10;100657;;;;572765;246;25192;-86
2022/09/08 05:16:03;;;;;;;18.60;3.53;;;14.20;99.90;16.00;100654;;;;572495;242;24133;-87
2022/09/08 05:18:31;;;;;;;13.63;2.47;;;16.20;99.90;17.90;100658;;;;576529;246;24090;-84
2022/09/08 05:20:59;;;;;;;20.37;3.53;;;18.10;99.90;19.50;100664;;;;574447;246;24166;-85
2022/09/08 05:23:27;;;;;;;10.10;5.53;;;19.70;99.90;21.00;100669;;;;574298;246;24095;-85
2022/09/08 05:26:01;;;;;;;3.50;1.40;;;21.20;99.90;22.20;100685;;;;583882;242;24094;-85
2022/09/08 05:28:29;;;;;;;7.77;1.43;;;23.70;95.10;23.30;100674;;;;573715;246;24084;-87
2022/09/08 05:30:58;;;;;;;5.57;1.63;;;23.60;95.00;24.20;100676;;;;573777;242;24109;-85
2022/09/08 05:33:25;;;;;;;8.83;1.93;;;24.70;89.30;24.80;100674;;;;573552;246;24149;-85
2022/09/08 05:35:50;;;;;;;8.40;1.83;;;25.40;83.10;25.60;100676;;;;582297;246;24092;-87
2022/09/08 05:38:18;;;;;;;4.67;1.47;;;26.20;77.40;25.90;100680;;;;573405;246;24106;-85
2022/09/08 05:40:46;;;;;;;1.30;1.20;;;26.70;73.60;26.30;100689;;;;573370;246;24089;-86
2022/09/08 05:43:16;;;;;;;2.83;1.50;;;27.00;69.70;26.80;100689;;;;573343;246;24249;-86
2022/09/08 05:45:48;;;;;;;1.40;1.30;;;27.40;68.40;27.40;100693;;;;582022;245;23141;-86
2022/09/08 05:48:12;;;;;;;1.33;1.23;;;27.90;66.10;28.00;100693;;;;572762;246;23236;-86
2022/09/08 05:50:46;;;;;;;5.93;1.50;;;28.50;62.80;28.30;100685;;;;573258;246;24096;-86
2022/09/08 05:53:17;;;;;;;3.33;1.33;;;29.00;61.10;28.90;100693;;;;575813;246;23095;-85
2022/09/08 05:55:42;;;;;;;7.13;1.47;;;29.60;58.70;29.40;100704;;;;575323;246;24199;-84
2022/09/08 05:58:13;;;;;;;1.15;1.15;;;30.00;58.00;29.70;100696;;;;575747;246;23157;-85
2022/09/08 06:00:38;;;;;;;2.58;1.15;;;30.90;54.10;30.40;100708;;;;573113;246;24114;-85
2022/09/08 06:03:06;;;;;;;4.37;1.80;;;30.80;53.90;30.40;100707;;;;573656;246;23112;-86
2022/09/08 06:05:39;;;;;;;1.42;1.20;;;31.10;53.90;30.30;100711;;;;573426;246;23106;-85
2022/09/08 06:08:03;;;;;;;2.95;1.30;;;30.90;52.00;30.00;100711;;;;572647;246;23102;-85
2022/09/08 06:10:35;;;;;;;1.35;1.25;;;30.10;52.60;28.90;100714;;;;573322;246;23117;-85
2022/09/08 06:13:00;;;;;;;3.53;1.20;;;29.00;53.20;27.50;100721;;;;581755;244;23159;-85
2022/09/08 06:15:28;;;;;;;1.30;1.20;;;29.00;53.20;25.90;100712;;;;572848;246;24115;-85
2022/09/08 06:17:58;;;;;;;2.00;1.50;;;27.50;55.50;24.20;100716;;;;574534;246;35241;-86
2022/09/08 06:20:24;;;;;;;1.17;1.10;;;25.90;58.30;22.90;100728;;;;573296;246;23118;-86
2022/09/08 06:22:52;;;;;;;4.30;1.40;;;24.50;60.80;22.20;100727;;;;573532;246;23101;-85
2022/09/08 06:25:20;;;;;;;1.30;1.30;;;23.50;63.40;21.30;100716;;;;573542;246;24092;-85
2022/09/08 06:28:09;;;;;;;1.10;1.10;;;22.60;66.20;20.60;100719;;;;573592;246;24069;-85
2022/09/08 06:30:37;;;;;;;3.03;1.20;;;21.70;68.90;19.90;100711;;;;573941;246;24109;-86
2022/09/08 06:33:05;;;;;;;3.23;1.60;;;20.80;72.30;19.60;100711;;;;574090;246;24116;-85
2022/09/08 06:35:53;;;;;;;1.47;1.37;;;20.40;75.00;19.50;100699;;;;582200;242;24102;-86
2022/09/08 06:38:46;;;;;;;3.33;1.50;;;20.10;75.30;19.20;100694;;;;573783;246;23101;-87
2022/09/08 06:41:16;;;;;;;3.37;1.70;;;19.90;76.30;19.40;100694;;;;571397;246;24165;-86
2022/09/08 06:43:47;;;;;;;1.47;1.37;;;19.90;77.60;19.50;100692;;;;573579;246;24128;-87
2022/09/08 06:46:21;;;;;;;3.83;1.47;;;19.90;78.80;20.40;100707;;;;582098;242;24088;-88
2022/09/08 06:48:53;;;;;;;2.73;1.40;;;20.50;78.10;21.90;100703;;;;582156;242;23118;-87
2022/09/08 06:51:29;;;;;;;2.93;1.23;;;21.80;74.50;23.60;100713;;;;578927;246;23112;-88
2022/09/08 06:54:30;;;;;;;1.33;1.23;;;23.40;70.30;24.90;100712;;;;573695;246;24091;-86
2022/09/08 06:57:16;;;;;;;1.50;1.40;;;24.80;65.60;25.20;100705;;;;573259;246;23184;-85
2022/09/08 07:00:01;;;;;;;1.53;1.23;;;25.60;62.80;26.10;100708;;;;573275;246;24097;-87
2022/09/08 07:02:38;;;;;;;3.23;1.50;;;27.10;58.70;26.80;100709;;;;583399;245;23173;-86
2022/09/08 07:05:56;;;;;;;3.17;1.40;;;27.10;58.70;27.10;100713;;;;582033;246;24172;-87
2022/09/08 07:08:51;;;;;;;1.57;1.20;;;27.50;57.20;28.10;100719;;;;573485;246;24239;-87
2022/09/08 07:11:52;;;;;;;2.77;1.13;;;28.50;55.40;28.60;100726;;;;573051;245;24176;-86
2022/09/08 07:14:33;;;;;;;2.87;1.23;;;29.10;53.80;28.50;100727;;;;572956;246;23118;-86
2022/09/08 07:17:46;;;;;;;5.23;1.63;;;29.30;53.20;29.20;100729;;;;572649;246;23113;-87
2022/09/08 07:20:14;;;;;;;1.20;1.20;;;29.70;52.30;29.90;100725;;;;573337;246;23090;-86
2022/09/08 07:22:56;;;;;;;1.90;1.20;;;30.30;50.50;30.20;100720;;;;573337;246;23303;-86
2022/09/08 07:25:33;;;;;;;5.85;1.58;;;30.70;49.70;31.00;100729;;;;575688;246;24118;-87
2022/09/08 07:28:13;;;;;;;3.40;1.17;;;31.60;46.80;31.00;100734;;;;573227;246;23157;-87
2022/09/08 07:30:43;;;;;;;2.72;1.42;;;31.60;46.80;31.10;100747;;;;573259;246;23098;-87
2022/09/08 07:33:24;;;;;;;1.12;1.00;;;31.90;46.20;31.30;100743;;;;572852;246;23151;-87
2022/09/08 07:36:22;;;;;;;3.50;1.23;;;31.80;46.00;31.70;100744;;;;571874;246;23181;-87
2022/09/08 07:38:50;;;;;;;1.60;1.50;;;32.20;45.50;31.20;100736;;;;572909;246;23093;-86
2022/09/08 07:41:30;;;;;;;2.55;1.30;;;31.90;45.60;31.30;100742;;;;582526;245;23129;-86
2022/09/08 07:43:59;;;;;;;2.60;1.30;;;31.80;46.30;32.30;100737;;;;581549;246;23190;-86
2022/09/08 07:46:29;;;;;;;5.18;1.30;;;32.50;45.30;32.40;100734;;;;574029;246;23164;-87
2022/09/08 07:49:09;;;;;;;3.15;1.00;;;32.90;44.50;32.10;100727;;;;573373;246;23098;-88
2022/09/08 07:52:05;;;;;;;3.42;1.40;;;32.70;44.20;32.20;100737;;;;583291;246;23157;-87
2022/09/08 07:54:37;;;;;;;3.67;1.50;;;32.70;44.60;32.10;100732;;;;574022;246;23146;-88
2022/09/08 07:57:17;;;;;;;4.07;1.30;;;32.80;44.90;32.60;100733;;;;573530;246;23102;-87
2022/09/08 08:00:15;;;;;;;3.85;1.48;;;33.10;44.00;33.00;100735;;;;573581;246;23103;-87
2022/09/08 08:03:08;;;;;;;4.37;1.15;;;33.50;43.40;32.70;100735;;;;573459;246;24110;-87
2022/09/08 08:05:44;;;;;;;2.30;1.25;;;33.10;43.30;32.20;100737;;;;574594;246;23110;-88
2022/09/08 08:08:36;;;;;;;1.17;1.08;;;33.00;43.20;32.10;100734;;;;573815;242;23100;-87
2022/09/08 08:11:34;;;;;;;3.53;1.17;;;33.10;43.30;32.80;100736;;;;574141;246;23110;-87
2022/09/08 08:14:14;;;;;;;6.37;1.80;;;33.50;42.00;33.70;100740;;;;574195;246;23106;-88
2022/09/08 08:16:54;;;;;;;4.32;1.10;;;34.20;42.50;34.90;100746;;;;572896;246;23149;-88
2022/09/08 08:20:05;;;;;;;4.62;1.40;;;35.20;41.60;34.90;100742;;;;577381;242;23164;-88
2022/09/08 08:22:47;;;;;;;1.30;1.20;;;35.60;40.60;34.70;100757;;;;573390;246;23149;-87
2022/09/08 08:25:28;;;;;;;1.23;1.23;;;35.70;39.80;34.50;100746;;;;573115;246;24124;-87
2022/09/08 08:28:19;;;;;;;2.72;1.27;;;35.60;39.70;34.80;100743;;;;570793;246;23131;-88
2022/09/08 08:31:02;;;;;;;1.30;1.12;;;35.70;39.50;35.20;100743;;;;573526;242;24109;-87
2022/09/08 08:33:32;;;;;;;20.77;3.12;;;36.10;39.50;35.20;100744;;;;582668;246;24113;-87
2022/09/08 08:36:06;;;;;;;7.05;2.10;;;36.10;39.10;36.10;100738;;;;576849;246;46296;-88
2022/09/08 08:38:39;;;;;;;4.05;1.23;;;36.70;38.60;36.40;100726;;;;573338;246;23172;-88
2022/09/08 08:41:19;;;;;;;4.57;1.50;;;37.20;37.70;36.40;100720;;;;581496;242;23099;-88
2022/09/08 08:43:47;;;;;;;1.67;1.33;;;37.40;37.80;35.60;100724;;;;573212;246;23149;-87
2022/09/08 08:46:37;;;;;;;5.78;1.98;;;36.40;38.20;34.80;100712;;;;581101;245;23173;-88
2022/09/08 08:49:20;;;;;;;3.72;1.40;;;36.40;38.20;35.10;100719;;;;573316;246;23094;-89
2022/09/08 08:51:59;;;;;;;1.75;1.50;;;36.30;38.00;35.20;100717;;;;571605;246;23166;-88
2022/09/08 08:55:04;;;;;;;3.08;1.30;;;36.30;37.80;34.40;100707;;;;574288;246;24137;-89
2022/09/08 08:57:44;;;;;;;5.00;2.30;;;35.90;38.20;33.10;100708;;;;574311;246;23096;-89
2022/09/08 09:00:21;;;;;;;4.68;1.27;;;34.80;38.60;33.00;100700;;;;582819;244;24149;-88
2022/09/08 09:03:23;;;;;;;3.60;1.42;;;34.30;39.90;32.90;100700;;;;573603;246;23149;-88
2022/09/08 09:06:03;;;;;;;5.32;1.45;;;34.20;39.40;33.30;100692;;;;573408;242;23113;-89
2022/09/08 09:08:48;;;;;;;2.12;1.20;;;34.30;39.20;33.50;100696;;;;582758;246;24115;-89
2022/09/08 09:11:25;;;;;;;1.58;1.33;;;34.50;38.70;33.10;100700;;;;573942;246;23141;-88
2022/09/08 09:14:08;;;;;;;11.12;1.75;;;34.40;38.50;32.90;100692;;;;573154;246;24130;-89
2022/09/08 09:16:39;;;;;;;1.42;1.17;;;34.20;38.80;32.40;100694;;;;572777;246;24111;-88
2022/09/08 09:19:28;;;;;;;1.92;1.40;;;33.90;39.00;32.60;100688;;;;575226;246;23182;-88
2022/09/08 09:22:05;;;;;;;8.18;2.37;;;33.80;39.10;32.40;100695;;;;573782;246;23144;-87
2022/09/08 09:25:13;;;;;;;4.87;1.60;;;33.70;38.90;32.10;100694;;;;574013;244;23155;-88
2022/09/08 09:28:05;;;;;;;4.00;1.05;;;33.50;39.10;31.90;100688;;;;573819;246;23155;-87
2022/09/08 09:30:59;;;;;;;2.72;1.35;;;33.10;39.00;31.70;100677;;;;573715;246;23111;-87
2022/09/08 09:33:30;;;;;;;2.60;1.27;;;32.90;38.90;31.70;100672;;;;573446;246;24173;-88
2022/09/08 09:36:23;;;;;;;1.77;1.35;;;32.80;39.40;32.30;100669;;;;582269;245;23166;-87
2022/09/08 09:39:19;;;;;;;4.85;2.00;;;33.30;38.40;32.10;100670;;;;573834;245;24161;-86
2022/09/08 09:41:45;;;;;;;3.60;1.40;;;33.50;37.90;32.10;100679;;;;571833;246;23116;-87
2022/09/08 09:44:35;;;;;;;4.10;1.42;;;33.60;37.70;32.00;100671;;;;581544;246;23115;-88
2022/09/08 09:47:15;;;;;;;3.60;1.12;;;33.40;37.60;32.20;100672;;;;582964;246;23149;-87
2022/09/08 09:50:31;;;;;;;6.75;1.75;;;33.60;37.30;31.80;100665;;;;582918;246;23125;-87
2022/09/08 09:53:20;;;;;;;8.80;1.20;;;33.40;37.00;31.40;100660;;;;573005;246;23173;-87
2022/09/08 09:56:06;;;;;;;2.87;1.25;;;33.00;37.70;31.90;100676;;;;554148;256;24217;-88
2022/09/08 09:58:52;;;;;;;1.33;1.20;;;33.30;37.30;31.70;100666;;;;573434;246;23068;-87
2022/09/08 10:01:26;;;;;;;3.50;1.42;;;33.30;36.70;31.20;100665;;;;573496;246;23126;-87
2022/09/08 10:04:28;;;;;;;3.75;1.50;;;32.80;38.10;31.10;100654;;;;583599;244;24113;-87
2022/09/08 10:07:28;;;;;;;2.55;1.52;;;32.60;37.80;31.00;100652;;;;577648;247;23065;-87
2022/09/08 10:10:30;;;;;;;1.77;1.45;;;32.60;37.80;30.60;100661;;;;573524;246;27424;-88
2022/09/08 10:13:15;;;;;;;4.65;1.25;;;32.20;38.30;29.30;100658;;;;562442;248;34965;-88
2022/09/08 10:16:20;;;;;;;3.50;1.52;;;31.20;38.60;27.70;100655;;;;577131;244;23158;-88
2022/09/08 10:19:05;;;;;;;10.20;1.13;;;29.50;40.30;26.30;100658;;;;575502;246;23194;-88
2022/09/08 10:22:10;;;;;;;1.50;1.27;;;27.90;42.40;25.30;100654;;;;563199;250;23148;-88
2022/09/08 10:25:06;;;;;;;6.63;1.40;;;26.70;43.70;24.30;100653;;;;566754;249;23117;-86
2022/09/08 10:28:25;;;;;;;1.43;1.17;;;25.50;45.90;23.50;100638;;;;578127;248;24138;-86
2022/09/08 10:31:23;;;;;;;6.87;1.30;;;24.70;47.40;23.10;100650;;;;573440;243;24108;-87
2022/09/08 10:34:05;;;;;;;2.50;1.67;;;23.90;47.80;22.50;100645;;;;583199;246;24118;-90
2022/09/08 10:36:48;;;;;;;0.77;0.70;;;23.40;48.40;22.00;100655;;;;574116;246;24085;-89
2022/09/08 10:39:34;;;;;;;2.80;1.10;;;22.90;49.90;21.60;100625;;;;579251;247;24048;-88
2022/09/08 10:42:02;;;;;;;6.03;1.47;;;22.40;50.40;21.20;100642;;;;583617;246;24121;-85
2022/09/08 10:45:00;;;;;;;3.07;1.00;;;21.90;51.30;20.90;100630;;;;572724;249;24150;-85
2022/09/08 10:48:01;;;;;;;1.00;1.00;;;21.60;52.10;20.70;100625;;;;563732;251;24115;-88
2022/09/08 10:50:37;;;;;;;1.30;1.10;;;21.30;52.70;20.60;100613;;;;568318;251;23139;-84
2022/09/08 10:53:15;;;;;;;1.07;0.83;;;21.10;52.90;20.50;100628;;;;564403;248;24083;-86
2022/09/08 10:56:05;;;;;;;1.43;0.70;;;21.00;52.10;20.30;100609;;;;563816;251;24114;-86
2022/09/08 10:59:00;;;;;;;4.00;0.90;;;20.90;52.50;20.20;100608;;;;566206;251;23129;-86
2022/09/08 11:02:07;;;;;;;0.77;0.77;;;20.80;52.60;20.00;100604;;;;576895;246;24095;-86
2022/09/08 11:05:00;;;;;;;4.23;1.20;;;20.60;52.70;19.90;100614;;;;577471;246;24170;-87
2022/09/08 11:07:46;;;;;;;0.93;0.80;;;20.40;54.20;19.80;100598;;;;576040;246;24140;-86
2022/09/08 11:10:35;;;;;;;1.30;1.10;;;20.30;54.80;19.80;100598;;;;569951;248;24055;-86
2022/09/08 11:13:29;;;;;;;3.17;0.70;;;20.30;54.40;19.80;100605;;;;583135;242;24102;-86
2022/09/08 11:16:15;;;;;;;3.33;0.90;;;20.30;55.00;19.70;100609;;;;572317;247;24058;-86
2022/09/08 11:19:04;;;;;;;2.17;0.97;;;20.20;55.60;19.60;100603;;;;584444;242;24092;-86
2022/09/08 11:21:35;;;;;;;3.80;0.60;;;20.10;56.60;19.70;100606;;;;580239;246;24043;-87
2022/09/08 11:24:34;;;;;;;1.97;0.90;;;20.10;55.90;19.60;100601;;;;583562;244;24094;-86
2022/09/08 11:27:19;;;;;;;3.23;0.80;;;20.10;57.70;19.60;100602;;;;584900;241;23116;-86
2022/09/08 11:29:47;;;;;;;5.63;1.03;;;20.10;58.60;19.60;100593;;;;585121;244;24123;-87
2022/09/08 11:32:22;;;;;;;3.07;0.90;;;20.10;58.50;19.60;100591;;;;577873;244;24056;-86
2022/09/08 11:35:23;;;;;;;0.83;0.80;;;20.10;58.40;19.60;100596;;;;573024;246;24093;-86
2022/09/08 11:38:19;;;;;;;1.10;1.00;;;20.00;58.10;19.50;100586;;;;570953;248;24101;-85
2022/09/08 11:41:17;;;;;;;2.57;1.03;;;20.00;58.10;19.50;100598;;;;572453;250;24119;-86
2022/09/08 11:44:25;;;;;;;2.80;1.10;;;20.00;56.90;19.40;100581;;;;575599;245;24148;-85
2022/09/08 11:47:23;;;;;;;0.80;0.80;;;19.90;56.70;19.40;100571;;;;566326;251;24123;-86
2022/09/08 11:50:19;;;;;;;5.65;1.27;;;19.90;56.70;19.40;100576;;;;569530;246;35316;-86
2022/09/08 11:53:17;;;;;;;3.43;0.90;;;19.80;58.30;19.40;100571;;;;562333;250;24116;-87
2022/09/08 11:56:12;;;;;;;0.70;0.70;;;19.90;57.10;19.40;100562;;;;563800;251;24106;-86
2022/09/08 11:58:50;;;;;;;4.73;1.03;;;19.90;56.30;19.40;100554;;;;574313;246;24107;-86
2022/09/08 12:01:26;;;;;;;7.10;1.00;;;19.90;56.20;19.40;100545;;;;578196;248;24150;-87
2022/09/08 12:04:03;;;;;;;1.23;1.13;;;19.90;56.80;19.40;100551;;;;582625;244;24092;-86
2022/09/08 12:07:07;;;;;;;4.67;1.10;;;19.80;57.30;19.30;100557;;;;573948;246;24076;-87